createdAt,value
2018-08-04T00:01:59.816Z,49.91
2018-08-04T00:04:29.621Z,49.84
2018-08-04T00:07:00.078Z,50.68
2018-08-04T00:09:30.128Z,51.10
2018-08-04T00:12:00.968Z,51.25
2018-08-04T00:14:31.361Z,51.38
2018-08-04T00:17:01.131Z,51.19
2018-08-04T00:19:31.379Z,50.77
2018-08-04T00:22:02.313Z,50.77
2018-08-04T00:24:32.648Z,51.12
2018-08-04T00:27:04.283Z,51.90
2018-08-04T00:29:34.507Z,51.79
2018-08-04T00:32:04.551Z,51.06
2018-08-04T00:34:34.962Z,51.26
2018-08-04T00:37:06.210Z,51.60
2018-08-04T00:39:36.927Z,52.01
2018-08-04T00:42:06.985Z,51.78
2018-08-04T00:44:36.718Z,51.70
2018-08-04T00:47:07.475Z,51.85
2018-08-04T00:49:37.006Z,51.07
2018-08-04T00:52:08.212Z,52.24
2018-08-04T00:54:37.371Z,52.14
2018-08-04T00:57:06.362Z,51.86
2018-08-04T00:59:35.335Z,52.68
2018-08-04T01:02:04.312Z,54.11
2018-08-04T01:04:33.383Z,53.15
2018-08-04T01:07:02.352Z,53.23
2018-08-04T01:09:31.310Z,53.29
2018-08-04T01:12:00.326Z,53.63
2018-08-04T01:14:29.303Z,52.93
2018-08-04T01:16:58.324Z,52.13
2018-08-04T01:19:27.299Z,52.60
2018-08-04T01:21:56.267Z,53.74
2018-08-04T01:24:25.291Z,54.54
2018-08-04T01:26:54.232Z,53.28
2018-08-04T01:29:23.195Z,54.12
2018-08-04T01:31:52.155Z,54.17
2018-08-04T01:34:21.179Z,53.33
2018-08-04T01:36:50.178Z,53.40
2018-08-04T01:39:19.153Z,52.71
2018-08-04T01:41:48.167Z,53.18
2018-08-04T01:44:17.164Z,53.37
2018-08-04T01:46:46.165Z,52.99
2018-08-04T01:49:15.187Z,52.39
2018-08-04T01:51:44.263Z,53.91
2018-08-04T01:54:13.243Z,53.15
2018-08-04T01:56:42.183Z,53.23
2018-08-04T01:59:11.234Z,54.56
2018-08-04T02:01:40.173Z,53.56
2018-08-04T02:04:09.194Z,55.54
2018-08-04T02:06:38.200Z,54.91
2018-08-04T02:09:08.214Z,55.10
2018-08-04T02:11:37.194Z,54.48
2018-08-04T02:14:06.247Z,54.53
2018-08-04T02:16:35.323Z,55.19
2018-08-04T02:19:04.300Z,55.21
2018-08-04T02:21:33.262Z,54.77
2018-08-04T02:24:02.243Z,55.30
2018-08-04T02:26:31.279Z,56.33
2018-08-04T02:29:00.231Z,56.78
2018-08-04T02:31:29.239Z,55.68
2018-08-04T02:33:58.248Z,55.35
2018-08-04T02:36:27.232Z,55.81
2018-08-04T02:38:56.199Z,54.76
2018-08-04T02:41:25.314Z,54.83
2018-08-04T02:43:54.311Z,54.03
2018-08-04T02:46:23.337Z,54.73
2018-08-04T02:48:52.326Z,56.27
2018-08-04T02:51:21.358Z,56.21
2018-08-04T02:53:50.336Z,55.83
2018-08-04T02:56:19.307Z,56.48
2018-08-04T02:58:48.256Z,56.09
2018-08-04T03:01:17.383Z,55.69
2018-08-04T03:03:46.360Z,55.19
2018-08-04T03:06:15.367Z,56.07
2018-08-04T03:08:44.339Z,56.61
2018-08-04T03:11:13.332Z,55.98
2018-08-04T03:13:42.317Z,55.54
2018-08-04T03:16:11.309Z,54.63
2018-08-04T03:18:41.306Z,55.77
2018-08-04T03:21:10.252Z,55.87
2018-08-04T03:23:39.222Z,56.80
2018-08-04T03:26:08.193Z,56.77
2018-08-04T03:28:37.199Z,54.99
2018-08-04T03:31:06.178Z,53.79
2018-08-04T03:33:35.163Z,53.79
2018-08-04T03:36:04.205Z,55.48
2018-08-04T03:38:33.127Z,55.04
2018-08-04T03:41:02.179Z,54.51
2018-08-04T03:43:31.147Z,55.31
2018-08-04T03:46:00.108Z,54.49
2018-08-04T03:48:29.075Z,54.28
2018-08-04T03:50:58.052Z,53.88
2018-08-04T03:53:27.131Z,54.61
2018-08-04T03:55:56.100Z,55.45
2018-08-04T03:58:25.063Z,54.07
2018-08-04T04:00:54.052Z,54.90
2018-08-04T04:03:23.054Z,54.72
2018-08-04T04:05:52.061Z,55.59
2018-08-04T04:08:21.019Z,53.77
2018-08-04T04:10:49.970Z,54.69
2018-08-04T04:13:18.943Z,54.39
2018-08-04T04:15:47.960Z,54.49
2018-08-04T04:18:16.987Z,53.66
2018-08-04T04:20:45.947Z,53.47
2018-08-04T04:23:15.030Z,54.55
2018-08-04T04:25:44.000Z,55.74
2018-08-04T04:28:13.000Z,53.80
2018-08-04T04:30:42.008Z,53.28
2018-08-04T04:33:10.966Z,55.02
2018-08-04T04:35:39.952Z,55.59
2018-08-04T04:38:08.895Z,55.41
2018-08-04T04:40:37.891Z,54.71
2018-08-04T04:43:06.898Z,54.83
2018-08-04T04:45:35.891Z,54.21
2018-08-04T04:48:05.031Z,54.01
2018-08-04T04:50:34.140Z,54.22
2018-08-04T04:53:03.107Z,53.79
2018-08-04T04:55:32.230Z,53.39
2018-08-04T04:58:01.176Z,53.04
2018-08-04T05:00:30.271Z,53.37
2018-08-04T05:02:59.472Z,52.21
2018-08-04T05:05:28.523Z,51.26
2018-08-04T05:07:57.612Z,52.47
2018-08-04T05:10:26.809Z,51.61
2018-08-04T05:12:55.842Z,50.71
2018-08-04T05:15:25.006Z,53.03
2018-08-04T05:17:54.060Z,52.87
2018-08-04T05:20:23.174Z,53.80
2018-08-04T05:22:52.217Z,51.64
2018-08-04T05:25:21.236Z,52.22
2018-08-04T05:27:50.253Z,52.42
2018-08-04T05:30:19.243Z,51.70
2018-08-04T05:32:48.291Z,51.59
2018-08-04T05:35:17.559Z,50.52
2018-08-04T05:37:47.335Z,51.04
2018-08-04T05:40:16.351Z,50.71
2018-08-04T05:42:45.299Z,50.57
2018-08-04T05:45:14.372Z,50.20
2018-08-04T05:47:43.386Z,50.93
2018-08-04T05:50:12.521Z,49.55
2018-08-04T05:52:41.498Z,49.93
2018-08-04T05:55:10.584Z,50.40
2018-08-04T05:57:39.561Z,49.81
2018-08-04T06:00:09.206Z,50.37
2018-08-04T06:02:38.374Z,48.12
2018-08-04T06:05:07.917Z,47.06
2018-08-04T06:07:38.014Z,46.52
2018-08-04T06:10:07.030Z,45.92
2018-08-04T06:12:36.170Z,47.57
2018-08-04T06:15:05.376Z,45.71
2018-08-04T06:17:34.411Z,43.07
2018-08-04T06:20:03.443Z,43.69
2018-08-04T06:22:32.503Z,41.19
2018-08-04T06:25:01.547Z,39.45
2018-08-04T06:27:30.616Z,38.92
2018-08-04T06:29:59.628Z,39.15
2018-08-04T06:32:28.639Z,37.78
2018-08-04T06:34:57.703Z,40.93
2018-08-04T06:37:26.716Z,39.54
2018-08-04T06:39:56.248Z,37.44
2018-08-04T06:42:25.641Z,38.10
2018-08-04T06:44:54.622Z,37.19
2018-08-04T06:47:23.658Z,36.88
2018-08-04T06:49:52.639Z,35.92
2018-08-04T06:52:21.716Z,37.64
2018-08-04T06:54:50.743Z,39.19
2018-08-04T06:57:19.778Z,38.80
2018-08-04T06:59:49.839Z,39.29
2018-08-04T07:02:18.837Z,39.70
2018-08-04T07:04:47.874Z,38.15
2018-08-04T07:07:16.876Z,36.53
2018-08-04T07:09:45.849Z,37.03
2018-08-04T07:12:14.905Z,35.40
2018-08-04T07:14:43.932Z,37.57
2018-08-04T07:17:12.960Z,37.27
2018-08-04T07:19:41.983Z,36.83
2018-08-04T07:22:10.967Z,37.42
2018-08-04T07:24:40.115Z,38.21
2018-08-04T07:27:09.319Z,37.70
2018-08-04T07:29:38.324Z,38.12
2018-08-04T07:32:07.339Z,39.03
2018-08-04T07:34:36.351Z,38.24
2018-08-04T07:37:05.811Z,36.55
2018-08-04T07:39:34.856Z,37.03
2018-08-04T07:42:03.844Z,37.42
2018-08-04T07:44:32.876Z,37.07
2018-08-04T07:47:01.883Z,36.48
2018-08-04T07:49:30.950Z,36.20
2018-08-04T07:52:00.108Z,34.92
2018-08-04T07:54:29.145Z,36.14
2018-08-04T07:56:58.209Z,37.75
2018-08-04T07:59:27.336Z,35.21
2018-08-04T08:01:56.315Z,34.22
2018-08-04T08:04:25.628Z,29.65
2018-08-04T08:06:54.682Z,28.45
2018-08-04T08:09:23.824Z,28.80
2018-08-04T08:11:52.923Z,28.14
2018-08-04T08:14:22.040Z,28.43
2018-08-04T08:16:51.100Z,28.97
2018-08-04T08:19:20.130Z,30.03
2018-08-04T08:21:49.188Z,30.28
2018-08-04T08:24:18.291Z,27.86
2018-08-04T08:26:47.400Z,28.08
2018-08-04T08:29:16.477Z,27.66
2018-08-04T08:31:45.488Z,27.85
2018-08-04T08:34:14.547Z,29.38
2018-08-04T08:36:43.567Z,26.76
2018-08-04T08:39:12.686Z,27.14
2018-08-04T08:41:41.739Z,26.03
2018-08-04T08:44:10.906Z,26.52
2018-08-04T08:49:15.050Z,25.45
2018-08-04T08:51:44.369Z,26.13
2018-08-04T08:54:14.649Z,26.22
2018-08-04T08:56:43.704Z,26.12
2018-08-04T08:59:13.827Z,27.60
2018-08-04T09:01:43.055Z,28.12
2018-08-04T09:04:12.134Z,27.82
2018-08-04T09:06:41.210Z,27.99
2018-08-04T09:09:10.955Z,27.86
2018-08-04T09:11:40.017Z,28.22
2018-08-04T09:14:09.074Z,29.03
2018-08-04T09:16:38.230Z,29.46
2018-08-04T09:19:07.416Z,26.74
2018-08-04T09:21:36.483Z,27.67
2018-08-04T09:24:05.599Z,27.64
2018-08-04T09:26:34.637Z,27.03
2018-08-04T09:29:03.735Z,26.95
2018-08-04T09:31:32.807Z,27.08
2018-08-04T09:34:01.861Z,25.62
2018-08-04T09:36:30.916Z,25.72
2018-08-04T09:38:59.992Z,22.68
2018-08-04T09:41:29.090Z,23.83
2018-08-04T09:43:58.082Z,23.32
2018-08-04T09:46:27.129Z,22.34
2018-08-04T09:48:56.151Z,22.42
2018-08-04T09:51:25.176Z,23.51
2018-08-04T09:53:54.154Z,23.04
2018-08-04T09:56:23.209Z,23.87
2018-08-04T09:58:52.259Z,22.60
2018-08-04T10:01:26.468Z,21.69
2018-08-04T10:03:55.555Z,20.99
2018-08-04T10:06:24.574Z,21.50
2018-08-04T10:08:53.647Z,21.02
2018-08-04T10:11:22.629Z,20.14
2018-08-04T10:13:51.597Z,20.96
2018-08-04T10:16:20.676Z,21.04
2018-08-04T10:18:49.756Z,20.84
2018-08-04T10:21:18.831Z,19.68
2018-08-04T10:23:47.929Z,21.09
2018-08-04T10:26:16.887Z,20.34
2018-08-04T10:28:46.048Z,19.40
2018-08-04T10:31:15.226Z,19.70
2018-08-04T10:33:44.240Z,19.22
2018-08-04T10:36:13.331Z,19.61
2018-08-04T10:38:42.458Z,20.64
2018-08-04T10:41:11.460Z,21.35
2018-08-04T10:43:40.487Z,20.65
2018-08-04T10:46:09.542Z,20.64
2018-08-04T10:48:38.570Z,19.30
2018-08-04T10:51:07.703Z,18.04
2018-08-04T10:53:36.748Z,19.30
2018-08-04T10:56:05.907Z,19.27
2018-08-04T10:58:35.009Z,19.32
2018-08-04T11:01:04.112Z,19.71
2018-08-04T11:03:33.126Z,20.15
2018-08-04T11:06:02.225Z,20.51
2018-08-04T11:08:31.260Z,21.01
2018-08-04T11:11:00.411Z,20.26
2018-08-04T11:13:29.466Z,19.15
2018-08-04T11:15:58.785Z,18.76
2018-08-04T11:18:27.795Z,21.00
2018-08-04T11:20:56.890Z,18.96
2018-08-04T11:23:25.989Z,18.58
2018-08-04T11:25:55.090Z,18.16
2018-08-04T11:28:24.160Z,19.92
2018-08-04T11:30:53.209Z,19.55
2018-08-04T11:33:22.443Z,19.37
2018-08-04T11:35:51.576Z,18.88
2018-08-04T11:38:20.675Z,18.82
2018-08-04T11:40:49.795Z,20.83
2018-08-04T11:43:18.844Z,20.04
2018-08-04T11:45:47.926Z,22.24
2018-08-04T11:48:17.009Z,23.79
2018-08-04T11:50:46.102Z,25.18
2018-08-04T11:53:15.195Z,24.08
2018-08-04T11:55:44.236Z,24.54
2018-08-04T11:58:13.302Z,26.37
2018-08-04T12:00:42.366Z,25.86
2018-08-04T12:03:11.451Z,25.31
2018-08-04T12:05:40.618Z,26.29
2018-08-04T12:08:09.630Z,24.65
2018-08-04T12:10:38.681Z,26.67
2018-08-04T12:13:07.737Z,26.26
2018-08-04T12:15:36.767Z,26.22
2018-08-04T12:18:05.936Z,27.15
2018-08-04T12:20:34.931Z,26.10
2018-08-04T12:23:04.025Z,25.91
2018-08-04T12:25:33.138Z,25.43
2018-08-04T12:28:02.131Z,25.85
2018-08-04T12:30:31.203Z,26.15
2018-08-04T12:33:01.198Z,25.47
2018-08-04T12:35:30.336Z,25.03
2018-08-04T12:37:59.395Z,25.65
2018-08-04T12:40:28.495Z,26.79
2018-08-04T12:42:57.519Z,25.30
2018-08-04T12:45:26.643Z,25.13
2018-08-04T12:47:55.821Z,25.07
2018-08-04T12:50:24.826Z,25.03
2018-08-04T12:52:53.847Z,26.46
2018-08-04T12:55:22.864Z,26.42
2018-08-04T12:57:51.886Z,26.42
2018-08-04T13:00:21.008Z,26.01
2018-08-04T13:02:50.456Z,24.13
2018-08-04T13:05:19.489Z,26.49
2018-08-04T13:07:48.468Z,26.78
2018-08-04T13:10:17.459Z,25.82
2018-08-04T13:12:46.463Z,24.97
2018-08-04T13:15:15.414Z,24.44
2018-08-04T13:17:44.432Z,23.89
2018-08-04T13:20:13.372Z,25.68
2018-08-04T13:22:42.384Z,24.38
2018-08-04T13:25:11.647Z,25.47
2018-08-04T13:27:40.705Z,25.04
2018-08-04T13:30:09.753Z,24.74
2018-08-04T13:32:38.932Z,24.55
2018-08-04T13:35:08.400Z,23.81
2018-08-04T13:37:37.518Z,25.26
2018-08-04T13:40:06.656Z,24.49
2018-08-04T13:42:35.793Z,24.84
2018-08-04T13:45:05.354Z,25.15
2018-08-04T13:47:34.360Z,25.58
2018-08-04T13:50:03.440Z,25.57
2018-08-04T13:52:32.553Z,25.27
2018-08-04T13:55:01.519Z,25.04
2018-08-04T13:57:30.608Z,24.08
2018-08-04T13:59:59.651Z,24.21
2018-08-04T14:02:28.774Z,23.26
2018-08-04T14:04:57.863Z,25.13
2018-08-04T14:07:26.959Z,23.14
2018-08-04T14:09:56.051Z,25.42
2018-08-04T14:12:25.097Z,24.89
2018-08-04T14:14:54.183Z,25.00
2018-08-04T14:17:23.333Z,26.25
2018-08-04T14:19:52.362Z,26.18
2018-08-04T14:22:21.482Z,25.25
2018-08-04T14:24:50.624Z,25.95
2018-08-04T14:27:19.695Z,26.19
2018-08-04T14:29:48.700Z,25.86
2018-08-04T14:32:17.759Z,25.63
2018-08-04T14:34:46.823Z,25.96
2018-08-04T14:37:15.866Z,25.35
2018-08-04T14:39:44.974Z,25.00
2018-08-04T14:42:14.111Z,26.01
2018-08-04T14:44:43.175Z,25.14
2018-08-04T14:47:12.210Z,25.54
2018-08-04T14:49:41.315Z,25.62
2018-08-04T14:52:10.445Z,25.45
2018-08-04T14:54:39.456Z,25.05
2018-08-04T14:57:08.475Z,26.06
2018-08-04T14:59:37.491Z,24.99
2018-08-04T15:02:07.259Z,25.02
2018-08-04T15:04:36.394Z,25.03
2018-08-04T15:07:05.587Z,24.85
2018-08-04T15:09:34.595Z,25.29
2018-08-04T15:12:03.648Z,25.93
2018-08-04T15:14:32.757Z,26.10
2018-08-04T15:17:01.880Z,26.89
2018-08-04T15:19:30.942Z,26.05
2018-08-04T15:22:00.063Z,25.83
2018-08-04T15:24:29.115Z,26.11
2018-08-04T15:26:58.167Z,26.23
2018-08-04T15:29:27.289Z,26.20
2018-08-04T15:31:56.694Z,25.00
2018-08-04T15:34:25.731Z,25.37
2018-08-04T15:36:54.836Z,25.42
2018-08-04T15:39:23.916Z,25.56
2018-08-04T15:41:52.926Z,25.27
2018-08-04T15:44:22.163Z,26.63
2018-08-04T15:46:51.536Z,26.36
2018-08-04T15:49:20.867Z,25.47
2018-08-04T15:51:50.191Z,26.42
2018-08-04T15:54:19.542Z,26.21
2018-08-04T15:56:49.215Z,27.35
2018-08-04T15:59:18.341Z,26.89
2018-08-04T16:01:47.561Z,27.34
2018-08-04T16:04:16.626Z,26.44
2018-08-04T16:06:45.886Z,26.85
2018-08-04T16:09:15.125Z,27.01
2018-08-04T16:11:44.209Z,25.79
2018-08-04T16:14:13.570Z,27.33
2018-08-04T16:16:42.803Z,26.23
2018-08-04T16:19:11.832Z,27.99
2018-08-04T16:21:40.813Z,27.62
2018-08-04T16:24:09.787Z,27.05
2018-08-04T16:26:38.799Z,27.71
2018-08-04T16:29:07.827Z,27.93
2018-08-04T16:31:36.924Z,27.79
2018-08-04T16:34:05.984Z,27.48
2018-08-04T16:36:35.023Z,27.83
2018-08-04T16:39:06.172Z,27.78
2018-08-04T16:41:36.124Z,27.73
2018-08-04T16:44:05.128Z,28.38
2018-08-04T16:46:35.159Z,28.51
2018-08-04T16:49:04.194Z,28.26
2018-08-04T16:51:33.236Z,28.53
2018-08-04T16:54:02.358Z,29.57
2018-08-04T16:56:31.428Z,29.90
2018-08-04T16:59:00.391Z,29.73
2018-08-04T17:01:29.391Z,28.39
2018-08-04T17:03:58.454Z,29.34
2018-08-04T17:06:27.517Z,30.15
2018-08-04T17:08:56.876Z,30.61
2018-08-04T17:11:25.955Z,31.37
2018-08-04T17:13:55.193Z,30.36
2018-08-04T17:16:24.632Z,30.32
2018-08-04T17:18:53.842Z,30.71
2018-08-04T17:21:23.059Z,30.52
2018-08-04T17:23:52.091Z,29.12
2018-08-04T17:26:21.305Z,30.34
2018-08-04T17:28:50.731Z,30.72
2018-08-04T17:31:19.723Z,31.49
2018-08-04T17:33:48.751Z,30.25
2018-08-04T17:36:18.130Z,29.99
2018-08-04T17:38:47.202Z,29.90
2018-08-04T17:41:16.555Z,30.08
2018-08-04T17:43:45.634Z,31.08
2018-08-04T17:46:14.802Z,31.70
2018-08-04T17:48:44.164Z,32.53
2018-08-04T17:51:13.558Z,32.28
2018-08-04T17:53:42.830Z,31.05
2018-08-04T17:56:11.860Z,31.70
2018-08-04T17:58:41.131Z,31.17
2018-08-04T18:01:10.238Z,31.03
2018-08-04T18:03:39.421Z,31.83
2018-08-04T18:06:08.440Z,32.32
2018-08-04T18:08:37.419Z,32.24
2018-08-04T18:11:06.468Z,31.84
2018-08-04T18:13:35.538Z,32.47
2018-08-04T18:16:06.879Z,32.71
2018-08-04T18:18:36.243Z,32.11
2018-08-04T18:21:05.497Z,32.03
2018-08-04T18:23:34.623Z,32.89
2018-08-04T18:26:03.900Z,33.46
2018-08-04T18:28:33.400Z,32.87
2018-08-04T18:31:02.458Z,33.84
2018-08-04T18:33:31.416Z,33.78
2018-08-04T18:36:00.381Z,32.97
2018-08-04T18:38:29.402Z,33.12
2018-08-04T18:40:58.722Z,33.69
2018-08-04T18:43:27.910Z,34.27
2018-08-04T18:45:57.455Z,33.92
2018-08-04T18:48:26.684Z,33.00
2018-08-04T18:50:55.849Z,34.51
2018-08-04T18:53:25.123Z,33.77
2018-08-04T18:55:54.395Z,32.77
2018-08-04T18:58:23.707Z,34.45
2018-08-04T19:00:53.080Z,34.25
2018-08-04T19:03:22.571Z,34.48
2018-08-04T19:05:52.372Z,33.98
2018-08-04T19:08:21.830Z,33.66
2018-08-04T19:10:51.237Z,35.01
2018-08-04T19:13:20.407Z,35.12
2018-08-04T19:15:49.468Z,35.10
2018-08-04T19:18:18.786Z,35.25
2018-08-04T19:20:47.928Z,34.56
2018-08-04T19:23:16.987Z,34.91
2018-08-04T19:25:46.447Z,34.58
2018-08-04T19:28:15.771Z,35.76
2018-08-04T19:30:45.197Z,35.63
2018-08-04T19:33:14.318Z,35.24
2018-08-04T19:35:43.605Z,36.67
2018-08-04T19:38:12.966Z,37.97
2018-08-04T19:40:42.268Z,38.61
2018-08-04T19:43:11.464Z,39.49
2018-08-04T19:45:40.500Z,39.34
2018-08-04T19:48:09.554Z,40.35
2018-08-04T19:50:38.475Z,40.18
2018-08-04T19:53:07.475Z,40.86
2018-08-04T19:55:36.485Z,41.77
2018-08-04T19:58:05.487Z,42.20
2018-08-04T20:00:34.523Z,42.05
2018-08-04T20:03:03.534Z,42.31
2018-08-04T20:05:32.481Z,43.45
2018-08-04T20:08:01.479Z,42.25
2018-08-04T20:10:30.459Z,41.94
2018-08-04T20:12:59.479Z,43.13
2018-08-04T20:15:28.430Z,42.55
2018-08-04T20:17:57.459Z,43.35
2018-08-04T20:20:26.471Z,43.47
2018-08-04T20:22:55.471Z,43.24
2018-08-04T20:25:24.537Z,42.87
2018-08-04T20:27:53.491Z,43.04
2018-08-04T20:30:22.448Z,43.96
2018-08-04T20:32:51.442Z,45.46
2018-08-04T20:35:20.408Z,42.18
2018-08-04T20:37:49.416Z,43.44
2018-08-04T20:40:18.441Z,43.68
2018-08-04T20:42:47.480Z,45.28
2018-08-04T20:45:16.447Z,44.90
2018-08-04T20:47:45.378Z,45.37
2018-08-04T20:50:14.371Z,45.16
2018-08-04T20:52:43.353Z,44.60
2018-08-04T20:55:12.370Z,45.28
2018-08-04T20:57:41.362Z,45.29
2018-08-04T21:00:10.317Z,46.67
2018-08-04T21:02:39.324Z,46.82
2018-08-04T21:05:08.303Z,46.11
2018-08-04T21:07:37.276Z,46.53
2018-08-04T21:10:06.395Z,45.62
2018-08-04T21:12:36.355Z,47.78
2018-08-04T21:15:05.371Z,47.44
2018-08-04T21:17:34.326Z,48.51
2018-08-04T21:20:03.380Z,49.30
2018-08-04T21:22:32.326Z,49.98
2018-08-04T21:25:01.298Z,50.64
2018-08-04T21:27:30.278Z,49.05
2018-08-04T21:29:59.268Z,50.54
2018-08-04T21:32:28.278Z,48.75
2018-08-04T21:34:57.284Z,50.38
2018-08-04T21:37:26.306Z,49.70
2018-08-04T21:39:55.266Z,51.59
2018-08-04T21:42:24.286Z,49.96
2018-08-04T21:44:53.262Z,49.95
2018-08-04T21:47:22.222Z,49.82
2018-08-04T21:49:51.210Z,49.62
2018-08-04T21:52:20.201Z,51.10
2018-08-04T21:54:49.129Z,51.01
2018-08-04T21:57:18.140Z,51.26
2018-08-04T21:59:47.146Z,51.38
2018-08-04T22:02:16.199Z,50.69
2018-08-04T22:04:45.169Z,50.33
2018-08-04T22:07:50.860Z,50.03
2018-08-04T22:10:19.812Z,52.25
2018-08-04T22:12:48.850Z,52.21
2018-08-04T22:15:17.770Z,53.04
2018-08-04T22:17:46.728Z,52.90
2018-08-04T22:20:17.694Z,52.04
2018-08-04T22:22:46.671Z,52.80
2018-08-04T22:25:16.879Z,52.69
2018-08-04T22:27:45.914Z,53.50
2018-08-04T22:30:16.075Z,53.33
2018-08-04T22:32:45.522Z,53.54
2018-08-04T22:35:14.524Z,52.34
2018-08-04T22:37:43.634Z,53.12
2018-08-04T22:40:13.614Z,53.28
2018-08-04T22:42:42.882Z,53.75
2018-08-04T22:45:53.775Z,53.28
2018-08-04T22:48:23.101Z,53.99
2018-08-04T22:50:52.111Z,53.84
2018-08-04T22:53:21.054Z,52.90
2018-08-04T22:55:49.998Z,52.32
2018-08-04T22:58:18.959Z,55.88
2018-08-04T23:00:47.913Z,55.22
2018-08-04T23:03:16.981Z,54.93
2018-08-04T23:05:45.935Z,53.94
2018-08-04T23:08:15.048Z,54.43
2018-08-04T23:10:44.433Z,55.60
2018-08-04T23:13:13.729Z,54.43
2018-08-04T23:15:42.719Z,55.15
2018-08-04T23:18:11.743Z,54.44
2018-08-04T23:20:40.730Z,54.11
2018-08-04T23:23:10.736Z,55.79
2018-08-04T23:25:39.681Z,55.47
2018-08-04T23:28:08.931Z,54.27
2018-08-04T23:30:37.892Z,53.99
2018-08-04T23:33:06.838Z,54.91
2018-08-04T23:35:35.807Z,54.25
2018-08-04T23:38:04.770Z,55.77
2018-08-04T23:40:33.780Z,54.98
2018-08-04T23:43:02.776Z,54.36
2018-08-04T23:45:31.753Z,54.12
2018-08-04T23:48:00.748Z,54.47
2018-08-04T23:50:29.702Z,55.59
2018-08-04T23:52:58.707Z,57.21
2018-08-04T23:55:27.660Z,57.30
2018-08-04T23:57:56.632Z,58.16
